Time;durP1;ratioP1;P1;durP2;ratioP2;P2;SDS_P1;SDS_P2;PMS_P1;PMS_P2;Temp;Humidity;BMP_temperature;BMP_pressure;BME280_temperature;BME280_humidity;BME280_pressure;Samples;Min_cycle;Max_cycle;Signal;HPM_P1;HPM_P2
2022/10/04 00:01:22;;;;;;;9.00;3.17;;;11.00;99.90;;;;;;5053177;28;20041;-65
2022/10/04 00:04:08;;;;;;;6.00;3.22;;;11.00;99.90;;;;;;5053320;28;20025;-64
2022/10/04 00:06:36;;;;;;;4.75;3.40;;;11.00;99.90;;;;;;5053201;28;20024;-65
2022/10/04 00:09:11;;;;;;;7.95;3.05;;;10.90;99.90;;;;;;5053094;28;20502;-65
2022/10/04 00:11:42;;;;;;;7.55;3.05;;;10.90;99.90;;;;;;5064264;28;20020;-65
2022/10/04 00:14:17;;;;;;;9.50;3.08;;;10.90;99.90;;;;;;5072906;28;20025;-65
2022/10/04 00:16:43;;;;;;;8.93;3.47;;;10.80;99.90;;;;;;5072569;28;20044;-66
2022/10/04 00:19:15;;;;;;;9.30;3.28;;;10.80;99.90;;;;;;5072505;28;20103;-65
2022/10/04 00:21:56;;;;;;;7.15;3.42;;;10.80;99.90;;;;;;5073321;28;20028;-65
2022/10/04 00:24:27;;;;;;;7.95;3.88;;;10.80;99.90;;;;;;5072765;28;20021;-65
2022/10/04 00:27:10;;;;;;;6.65;3.08;;;10.70;99.90;;;;;;5072753;28;20020;-65
2022/10/04 00:29:39;;;;;;;7.78;2.97;;;10.60;99.90;;;;;;5072791;28;20021;-64
2022/10/04 00:32:07;;;;;;;7.00;3.40;;;10.60;99.90;;;;;;5072387;28;20032;-65
2022/10/04 00:34:48;;;;;;;8.48;3.95;;;10.70;99.90;;;;;;5072861;28;20024;-65
2022/10/04 00:37:15;;;;;;;9.52;3.40;;;10.70;99.90;;;;;;5075101;28;20025;-66
2022/10/04 00:39:43;;;;;;;9.77;3.47;;;10.60;99.90;;;;;;5073233;28;20024;-66
2022/10/04 00:42:34;;;;;;;11.05;3.67;;;10.50;99.90;;;;;;5072539;28;20047;-66
2022/10/04 00:45:46;;;;;;;6.72;3.30;;;10.50;99.90;;;;;;5072204;28;20461;-66
2022/10/04 00:48:17;;;;;;;7.20;3.70;;;10.40;99.90;;;;;;5068222;28;20075;-66
2022/10/04 00:50:52;;;;;;;5.70;3.28;;;10.40;99.90;;;;;;5072158;28;20021;-66
2022/10/04 00:53:26;;;;;;;11.07;3.63;;;10.40;99.90;;;;;;5072410;28;20033;-65
2022/10/04 00:55:59;;;;;;;5.55;4.07;;;10.30;99.90;;;;;;5072582;28;20601;-66
2022/10/04 00:58:32;;;;;;;8.82;3.90;;;10.50;99.90;;;;;;5072171;28;20028;-66
2022/10/04 01:00:58;;;;;;;10.02;4.03;;;10.40;99.90;;;;;;5071656;28;20070;-66
2022/10/04 01:03:27;;;;;;;5.50;3.50;;;10.30;99.90;;;;;;5071906;28;20025;-66
2022/10/04 01:05:58;;;;;;;9.93;3.75;;;10.30;99.90;;;;;;5072424;28;20024;-66
2022/10/04 01:08:49;;;;;;;6.10;3.55;;;10.30;99.90;;;;;;5072047;28;20090;-65
2022/10/04 01:11:22;;;;;;;6.15;3.60;;;10.20;99.90;;;;;;5064710;28;20123;-66
2022/10/04 01:14:05;;;;;;;;;;;10.50;99.90;;;;;;5072575;28;20040;-66
2022/10/04 01:16:32;;;;;;;;;;;10.30;99.90;;;;;;5072015;28;20003;-66
2022/10/04 01:19:33;;;;;;;;;;;10.20;99.90;;;;;;5072657;28;19924;-66
2022/10/04 01:22:10;;;;;;;;;;;10.20;99.90;;;;;;5010576;28;19909;-66
2022/10/04 01:24:37;;;;;;;;;;;10.30;99.90;;;;;;5010896;28;20404;-67
2022/10/04 01:27:03;;;;;;;;;;;10.20;99.90;;;;;;5010544;28;19905;-66
2022/10/04 01:29:30;;;;;;;;;;;10.20;99.90;;;;;;5010273;28;19910;-66
2022/10/04 01:31:57;;;;;;;;;;;10.10;99.90;;;;;;5009990;28;20371;-66
2022/10/04 01:34:24;;;;;;;;;;;10.10;99.90;;;;;;5010803;28;19910;-66
2022/10/04 01:36:52;;;;;;;;;;;10.10;99.90;;;;;;5010171;28;19905;-67
2022/10/04 01:39:19;;;;;;;;;;;10.00;99.90;;;;;;5010275;28;19905;-66
2022/10/04 01:41:57;;;;;;;;;;;10.00;99.90;;;;;;5010512;28;19960;-66
2022/10/04 01:44:31;;;;;;;;;;;10.00;99.90;;;;;;5010479;28;20405;-66
2022/10/04 01:46:59;;;;;;;;;;;9.90;99.90;;;;;;5010165;28;19909;-65
2022/10/04 01:49:27;;;;;;;;;;;10.00;99.90;;;;;;5010211;28;19932;-66
2022/10/04 01:52:00;;;;;;;;;;;9.90;99.90;;;;;;5010306;28;20462;-66
2022/10/04 01:54:51;;;;;;;;;;;9.90;99.90;;;;;;5010821;28;20332;-66
2022/10/04 01:57:21;;;;;;;;;;;9.90;99.90;;;;;;5048934;28;20333;-65
2022/10/04 02:00:00;;;;;;;;;;;9.80;99.90;;;;;;5051685;28;19911;-66
2022/10/04 02:02:28;;;;;;;;;;;9.80;99.90;;;;;;5052102;28;19909;-65
2022/10/04 02:04:55;;;;;;;;;;;9.80;99.90;;;;;;5052295;28;19911;-65
2022/10/04 02:07:21;;;;;;;;;;;9.80;99.90;;;;;;5051932;28;19963;-65
2022/10/04 02:09:49;;;;;;;;;;;9.70;99.90;;;;;;5051683;28;20286;-66
2022/10/04 02:12:16;;;;;;;;;;;9.70;99.90;;;;;;5070199;28;19983;-67
2022/10/04 02:14:54;;;;;;;;;;;9.70;99.90;;;;;;5075357;28;19936;-68
2022/10/04 02:17:22;;;;;;;;;;;9.60;99.90;;;;;;5075453;28;19943;-67
2022/10/04 02:19:48;;;;;;;;;;;9.60;99.90;;;;;;5075553;28;20007;-66
2022/10/04 02:22:14;;;;;;;;;;;9.70;99.90;;;;;;5075675;28;19939;-66
2022/10/04 02:24:41;;;;;;;;;;;9.70;99.90;;;;;;5075448;28;20366;-67
2022/10/04 02:27:06;;;;;;;;;;;9.80;99.90;;;;;;5075647;28;20337;-67
2022/10/04 02:29:32;;;;;;;;;;;9.70;99.90;;;;;;5075410;28;19905;-67
2022/10/04 02:34:42;;;;;;;;;;;9.60;99.90;;;;;;5075620;28;19927;-65
2022/10/04 02:37:08;;;;;;;;;;;9.60;99.90;;;;;;5075539;28;20386;-66
2022/10/04 02:39:44;;;;;;;;;;;9.50;99.90;;;;;;5075699;28;19904;-66
2022/10/04 02:42:16;;;;;;;;;;;9.50;99.90;;;;;;5075132;28;19951;-66
2022/10/04 02:45:02;;;;;;;;;;;9.50;99.90;;;;;;5074680;28;19909;-66
2022/10/04 02:47:34;;;;;;;;;;;9.60;99.90;;;;;;5075129;28;20023;-65
2022/10/04 02:50:05;;;;;;;;;;;9.60;99.90;;;;;;5075105;28;19908;-66
2022/10/04 02:52:41;;;;;;;;;;;9.50;99.90;;;;;;5075097;28;19913;-66
2022/10/04 02:55:36;;;;;;;;;;;9.40;99.90;;;;;;5075041;28;20274;-66
2022/10/04 02:58:07;;;;;;;;;;;9.40;99.90;;;;;;5061356;28;19912;-66
2022/10/04 03:00:43;;;;;;;;;;;9.30;99.90;;;;;;5075032;28;19904;-65
2022/10/04 03:03:08;;;;;;;;;;;9.30;99.90;;;;;;5075006;28;19987;-67
2022/10/04 03:05:35;;;;;;;;;;;9.30;99.90;;;;;;5074861;28;20061;-66
2022/10/04 03:08:00;;;;;;;;;;;9.20;99.90;;;;;;5074706;28;19908;-67
2022/10/04 03:10:26;;;;;;;;;;;9.20;99.90;;;;;;5074949;28;19991;-66
2022/10/04 03:12:52;;;;;;;;;;;9.20;99.90;;;;;;5074250;28;19920;-66
2022/10/04 03:15:18;;;;;;;;;;;9.10;99.90;;;;;;5074727;28;19919;-65
2022/10/04 03:17:44;;;;;;;;;;;9.20;99.90;;;;;;5074531;28;19916;-66
2022/10/04 03:20:13;;;;;;;;;;;9.20;99.90;;;;;;5074680;28;20361;-67
2022/10/04 03:22:39;;;;;;;;;;;9.30;99.90;;;;;;5074087;28;20279;-66
2022/10/04 03:25:05;;;;;;;;;;;9.20;99.90;;;;;;5074133;28;19926;-66
2022/10/04 03:27:32;;;;;;;;;;;9.10;99.90;;;;;;5074126;28;20433;-64
2022/10/04 03:29:58;;;;;;;;;;;9.10;99.90;;;;;;5074255;28;19908;-66
2022/10/04 03:32:24;;;;;;;;;;;9.10;99.90;;;;;;5074374;28;19958;-66
2022/10/04 03:35:00;;;;;;;;;;;9.10;99.90;;;;;;5075207;28;19908;-66
2022/10/04 03:37:27;;;;;;;;;;;9.20;99.90;;;;;;5075343;28;19950;-65
2022/10/04 03:39:54;;;;;;;;;;;9.10;99.90;;;;;;5074158;28;19909;-66
2022/10/04 03:42:22;;;;;;;;;;;9.10;99.90;;;;;;5074280;28;19950;-65
2022/10/04 03:44:49;;;;;;;;;;;9.00;99.90;;;;;;5073768;28;20424;-66
2022/10/04 03:47:26;;;;;;;;;;;8.90;99.90;;;;;;5074106;28;19908;-66
2022/10/04 03:49:53;;;;;;;;;;;8.90;99.90;;;;;;5073922;28;19987;-66
2022/10/04 03:52:21;;;;;;;;;;;8.90;99.90;;;;;;5073894;28;20328;-66
2022/10/04 03:54:48;;;;;;;;;;;8.90;99.90;;;;;;5073777;28;20398;-65
2022/10/04 03:57:14;;;;;;;;;;;8.80;99.90;;;;;;5073461;28;19931;-65
2022/10/04 03:59:41;;;;;;;;;;;8.90;99.90;;;;;;5073758;28;19904;-66
2022/10/04 04:02:14;;;;;;;;;;;8.90;99.90;;;;;;5073792;28;19996;-66
2022/10/04 04:04:43;;;;;;;;;;;9.00;99.90;;;;;;5073365;28;19970;-66
2022/10/04 04:07:14;;;;;;;;;;;8.90;99.90;;;;;;5073832;28;19909;-65
2022/10/04 04:09:42;;;;;;;;;;;8.90;99.90;;;;;;5073589;28;20008;-66
2022/10/04 04:12:20;;;;;;;;;;;8.80;99.90;;;;;;5073187;28;19940;-66
2022/10/04 04:14:48;;;;;;;;;;;8.70;99.90;;;;;;5073290;28;20367;-66
2022/10/04 04:17:28;;;;;;;;;;;8.70;99.90;;;;;;5073227;28;19961;-66
2022/10/04 04:19:56;;;;;;;;;;;8.70;99.90;;;;;;5073382;28;19910;-66
2022/10/04 04:22:22;;;;;;;;;;;8.70;99.90;;;;;;5073631;28;20363;-66
2022/10/04 04:24:49;;;;;;;;;;;8.70;99.90;;;;;;5072661;28;19916;-66
2022/10/04 04:27:16;;;;;;;;;;;8.60;99.90;;;;;;5073146;28;20279;-66
2022/10/04 04:29:48;;;;;;;;;;;8.60;99.90;;;;;;5073680;28;19927;-66
2022/10/04 04:32:17;;;;;;;;;;;8.60;99.90;;;;;;5072861;28;19965;-67
2022/10/04 04:35:09;;;;;;;;;;;8.60;99.90;;;;;;5072183;28;19904;-66
2022/10/04 04:37:35;;;;;;;;;;;8.60;99.90;;;;;;5073285;28;19995;-66
2022/10/04 04:40:18;;;;;;;;;;;8.60;99.90;;;;;;5072625;28;19924;-66
2022/10/04 04:42:44;;;;;;;;;;;8.50;99.90;;;;;;5072974;28;20386;-66
2022/10/04 04:45:10;;;;;;;;;;;8.40;99.90;;;;;;5072864;28;19944;-67
2022/10/04 04:47:39;;;;;;;;;;;8.40;99.90;;;;;;5072896;28;19947;-66
2022/10/04 04:50:07;;;;;;;;;;;8.40;99.90;;;;;;5072921;28;20286;-67
2022/10/04 04:52:33;;;;;;;;;;;8.60;99.90;;;;;;5073044;28;19916;-65
2022/10/04 04:54:59;;;;;;;;;;;8.60;99.90;;;;;;5072490;28;19919;-66
2022/10/04 04:57:24;;;;;;;;;;;8.60;99.90;;;;;;5072660;28;19904;-66
2022/10/04 04:59:56;;;;;;;;;;;8.50;99.90;;;;;;5072780;28;19905;-66
2022/10/04 05:02:35;;;;;;;;;;;8.40;99.90;;;;;;5073158;28;19955;-66
2022/10/04 05:05:16;;;;;;;;;;;8.40;99.90;;;;;;5072627;28;19984;-67
2022/10/04 05:07:42;;;;;;;;;;;8.30;99.90;;;;;;5072347;28;19904;-66
2022/10/04 05:10:26;;;;;;;;;;;8.30;99.90;;;;;;5072198;28;19908;-67
2022/10/04 05:12:52;;;;;;;;;;;8.30;99.90;;;;;;5052460;28;20304;-67
2022/10/04 05:15:18;;;;;;;;;;;8.30;99.90;;;;;;5052478;28;19905;-67
2022/10/04 05:17:43;;;;;;;;;;;8.40;99.90;;;;;;5052649;28;19959;-66
2022/10/04 05:20:10;;;;;;;;;;;8.40;99.90;;;;;;5052158;28;19905;-66
2022/10/04 05:22:37;;;;;;;;;;;8.30;99.90;;;;;;5052081;28;19905;-67
2022/10/04 05:25:12;;;;;;;;;;;8.20;99.90;;;;;;5052331;28;19912;-67
2022/10/04 05:27:39;;;;;;;;;;;8.20;99.90;;;;;;5052605;28;20321;-66
2022/10/04 05:30:04;;;;;;;;;;;8.10;99.90;;;;;;5052393;28;19905;-67
2022/10/04 05:32:53;;;;;;;;;;;8.10;99.90;;;;;;5052357;28;19916;-66
2022/10/04 05:35:20;;;;;;;;;;;8.10;99.90;;;;;;5044003;28;20039;-66
2022/10/04 05:38:04;;;;;;;;;;;8.20;99.90;;;;;;5052028;28;19905;-67
2022/10/04 05:40:36;;;;;;;;;;;8.20;99.90;;;;;;5052414;28;19944;-66
2022/10/04 05:43:18;;;;;;;;;;;8.20;99.90;;;;;;5052172;28;19904;-66
2022/10/04 05:45:44;;;;;;;;;;;8.20;99.90;;;;;;5065540;28;20431;-67
2022/10/04 05:48:11;;;;;;;;;;;8.20;99.90;;;;;;5075991;28;20003;-67
2022/10/04 05:50:40;;;;;;;;;;;8.20;99.90;;;;;;5076598;28;19905;-67
2022/10/04 05:53:18;;;;;;;;;;;8.10;99.90;;;;;;5075716;28;19912;-67
2022/10/04 05:56:03;;;;;;;;;;;8.00;99.90;;;;;;5076469;28;19904;-67
2022/10/04 05:58:40;;;;;;;;;;;8.00;99.90;;;;;;5076625;28;20282;-66
2022/10/04 06:01:34;;;;;;;;;;;8.00;99.90;;;;;;5076246;28;19905;-66
2022/10/04 06:04:12;;;;;;;;;;;7.90;99.90;;;;;;5058343;28;19904;-66
2022/10/04 06:06:56;;;;;;;;;;;7.90;99.90;;;;;;5075595;28;19905;-66
2022/10/04 06:09:40;;;;;;;;;;;8.00;99.90;;;;;;5075655;28;19904;-66
2022/10/04 06:12:12;;;;;;;;;;;8.10;99.90;;;;;;5075696;28;20255;-66
2022/10/04 06:14:47;;;;;;;;;;;8.20;99.90;;;;;;5075740;28;19908;-66
2022/10/04 06:17:22;;;;;;;;;;;8.20;99.90;;;;;;5076002;28;19961;-66
2022/10/04 06:20:00;;;;;;;;;;;8.40;99.90;;;;;;5076011;28;19935;-66
2022/10/04 06:22:25;;;;;;;;;;;8.40;99.90;;;;;;5075363;28;19911;-66
2022/10/04 06:24:54;;;;;;;;;;;8.40;99.90;;;;;;5075394;28;20007;-65
2022/10/04 06:27:26;;;;;;;;;;;8.60;99.90;;;;;;5075519;28;20290;-64
2022/10/04 06:29:59;;;;;;;;;;;8.90;99.90;;;;;;5075484;28;19957;-66
2022/10/04 06:32:39;;;;;;;;;;;9.30;99.90;;;;;;5075326;28;19919;-65
2022/10/04 06:35:11;;;;;;;;;;;9.80;99.90;;;;;;5075165;28;19991;-66
2022/10/04 06:38:06;;;;;;;;;;;10.60;99.90;;;;;;5075378;28;19908;-67
2022/10/04 06:40:31;;;;;;;;;;;11.10;99.90;;;;;;5014910;28;19944;-66
2022/10/04 06:42:59;;;;;;;;;;;11.70;99.90;;;;;;5014584;28;19909;-67
2022/10/04 06:45:34;;;;;;;;;;;12.20;99.90;;;;;;5012727;28;19909;-66
2022/10/04 06:47:59;;;;;;;;;;;12.50;99.90;;;;;;5012913;28;20316;-67
2022/10/04 06:50:25;;;;;;;;;;;12.70;99.90;;;;;;5012771;28;19992;-65
2022/10/04 06:52:59;;;;;;;;;;;13.10;99.90;;;;;;5013054;28;20012;-66
2022/10/04 06:55:45;;;;;;;;;;;13.50;99.90;;;;;;5013495;28;19915;-67
2022/10/04 06:58:29;;;;;;;;;;;14.10;99.90;;;;;;5011828;28;19917;-67
2022/10/04 07:01:06;;;;;;;;;;;14.60;99.90;;;;;;5012900;28;20014;-67
2022/10/04 07:03:44;;;;;;;;;;;15.10;99.90;;;;;;5012874;28;19906;-67
2022/10/04 07:06:10;;;;;;;;;;;15.80;99.90;;;;;;5012659;28;19960;-65
2022/10/04 07:08:46;;;;;;;;;;;16.70;99.90;;;;;;5013197;28;19935;-67
2022/10/04 07:11:12;;;;;;;;;;;16.00;99.90;;;;;;5012747;28;19913;-66
2022/10/04 07:14:03;;;;;;;;;;;15.40;99.90;;;;;;5012803;28;20426;-66
2022/10/04 07:16:44;;;;;;;;;;;15.80;99.90;;;;;;5025031;28;19962;-67
2022/10/04 07:19:13;;;;;;;;;;;16.30;99.90;;;;;;5054354;28;19912;-66
2022/10/04 07:21:41;;;;;;;;;;;15.90;99.90;;;;;;5054620;28;19909;-67
2022/10/04 07:24:10;;;;;;;;;;;16.30;99.90;;;;;;5054854;28;19980;-67
2022/10/04 07:26:42;;;;;;;;;;;16.70;99.90;;;;;;5054499;28;19988;-66
2022/10/04 07:29:45;;;;;;;;;;;17.00;99.90;;;;;;5054049;28;20283;-64
2022/10/04 07:32:27;;;;;;;;;;;17.70;99.90;;;;;;4992886;28;19960;-65
2022/10/04 07:35:01;;;;;;;;;;;20.00;99.90;;;;;;4992742;28;19910;-65
2022/10/04 07:37:28;;;;;;;;;;;21.00;99.90;;;;;;4993156;28;20328;-66
2022/10/04 07:40:07;;;;;;;;;;;20.80;99.90;;;;;;4992830;28;19906;-65
2022/10/04 07:42:47;;;;;;;;;;;22.00;99.90;;;;;;4992746;28;19921;-63
2022/10/04 07:45:21;;;;;;;;;;;20.80;99.90;;;;;;5001394;28;19995;-66
2022/10/04 07:47:47;;;;;;;;;;;19.90;99.90;;;;;;5012126;28;19909;-65
2022/10/04 07:50:33;;;;;;;;;;;20.30;99.90;;;;;;4995527;28;19988;-66
2022/10/04 07:53:06;;;;;;;;;;;20.70;99.90;;;;;;5011896;28;20023;-67
2022/10/04 07:55:37;;;;;;;;;;;20.70;99.90;;;;;;5011975;28;19909;-66
2022/10/04 07:58:21;;;;;;;;;;;21.20;99.90;;;;;;5011877;28;19906;-67
2022/10/04 08:00:55;;;;;;;;;;;21.40;99.90;;;;;;5011715;28;20004;-66
2022/10/04 08:03:39;;;;;;;;;;;22.60;99.90;;;;;;5011414;28;19951;-67
2022/10/04 08:06:05;;;;;;;;;;;23.70;99.90;;;;;;5032025;28;19904;-67
2022/10/04 08:08:48;;;;;;;;;;;22.60;99.90;;;;;;5053406;28;20426;-66
2022/10/04 08:11:14;;;;;;;;;;;24.90;99.90;;;;;;5060622;28;19911;-67
2022/10/04 08:13:54;;;;;;;;;;;24.20;99.90;;;;;;5072782;28;19935;-66
2022/10/04 08:16:23;;;;;;;;;;;24.30;99.90;;;;;;5073159;28;19935;-66
2022/10/04 08:19:11;;;;;;;;;;;25.80;99.90;;;;;;5073089;28;19916;-66
2022/10/04 08:21:55;;;;;;;;;;;25.80;99.90;;;;;;5072679;28;20391;-66
2022/10/04 08:24:27;;;;;;;;;;;27.20;99.90;;;;;;5073031;28;20000;-65
2022/10/04 08:27:16;;;;;;;;;;;24.70;99.90;;;;;;5072729;28;19920;-66
2022/10/04 08:29:51;;;;;;;;;;;23.40;99.90;;;;;;5072981;28;20029;-67
2022/10/04 08:32:19;;;;;;;;;;;26.60;99.90;;;;;;5072702;28;20002;-66
2022/10/04 08:34:44;;;;;;;;;;;24.50;99.90;;;;;;5073133;28;19905;-66
2022/10/04 08:37:45;;;;;;;;;;;25.70;99.90;;;;;;5073400;28;19911;-66
2022/10/04 08:40:13;;;;;;;;;;;27.30;99.90;;;;;;5011178;28;19909;-66
2022/10/04 08:42:58;;;;;;;;;;;26.90;99.90;;;;;;5011621;28;20603;-67
2022/10/04 08:45:42;;;;;;;;;;;25.50;99.90;;;;;;5010286;28;19909;-66
2022/10/04 08:48:17;;;;;;;;;;;28.90;99.90;;;;;;5010957;28;19928;-66
2022/10/04 08:50:58;;;;;;;;;;;26.90;99.90;;;;;;5011205;28;19992;-66
2022/10/04 08:53:41;;;;;;;;;;;28.10;99.90;;;;;;5011310;28;19974;-63
2022/10/04 08:56:39;;;;;;;;;;;29.50;99.90;;;;;;5011027;28;19964;-66
2022/10/04 08:59:07;;;;;;;;;;;28.70;99.50;;;;;;4952740;29;19969;-66
2022/10/04 09:01:39;;;;;;;;;;;30.00;99.90;;;;;;4952115;29;19910;-66
2022/10/04 09:04:22;;;;;;;;;;;31.30;97.50;;;;;;4952199;29;20353;-64
2022/10/04 09:06:57;;;;;;;;;;;30.20;97.20;;;;;;4952278;29;19958;-65
2022/10/04 09:09:43;;;;;;;;;;;33.10;95.50;;;;;;4951435;29;20344;-65
2022/10/04 09:12:09;;;;;;;;;;;31.20;95.30;;;;;;4952599;29;20009;-66
2022/10/04 09:14:37;;;;;;;;;;;32.50;95.00;;;;;;4977435;28;20059;-65
2022/10/04 09:17:03;;;;;;;;;;;32.80;93.30;;;;;;4990866;28;20296;-65
2022/10/04 09:19:47;;;;;;;;;;;32.30;92.70;;;;;;4990804;28;19913;-65
2022/10/04 09:22:19;;;;;;;;;;;30.80;93.60;;;;;;4990313;28;19916;-65
2022/10/04 09:24:50;;;;;;;;;;;30.40;94.30;;;;;;4990958;28;20344;-65
2022/10/04 09:27:35;;;;;;;;;;;30.50;93.70;;;;;;4990571;28;19979;-65
2022/10/04 09:30:18;;;;;;;;;;;30.40;94.60;;;;;;4990572;28;20001;-65
2022/10/04 09:32:45;;;;;;;;;;;30.00;95.30;;;;;;4991117;28;19973;-65
2022/10/04 09:35:33;;;;;;;;;;;29.40;93.60;;;;;;5034063;28;19905;-65
2022/10/04 09:38:08;;;;;;;;;;;30.40;94.90;;;;;;5051841;28;19938;-65
2022/10/04 09:40:59;;;;;;;;;;;29.20;94.70;;;;;;5052162;28;19911;-65
2022/10/04 09:43:33;;;;;;;;;;;30.60;94.90;;;;;;5052236;28;20016;-66
2022/10/04 09:46:17;;;;;;;;;;;30.50;93.90;;;;;;5067629;28;19983;-65
2022/10/04 09:48:43;;;;;;;;;;;31.70;93.30;;;;;;5072047;28;19908;-65
2022/10/04 09:51:41;;;;;;;;;;;33.00;92.00;;;;;;5072720;28;19954;-65
2022/10/04 09:54:06;;;;;;;;;;;34.90;91.00;;;;;;5072211;28;19919;-65
2022/10/04 09:56:35;;;;;;;;;;;34.60;90.90;;;;;;5072114;28;19904;-65
2022/10/04 09:59:00;;;;;;;;;;;35.80;89.60;;;;;;5071982;28;19904;-65
2022/10/04 10:01:32;;;;;;;;;;;33.10;87.80;;;;;;5072237;28;20007;-65
2022/10/04 10:04:03;;;;;;;;;;;33.40;87.40;;;;;;5072073;28;19908;-65
2022/10/04 10:06:32;;;;;;;;;;;34.50;85.10;;;;;;5072454;28;19908;-65
2022/10/04 10:09:12;;;;;;;;;;;35.60;85.10;;;;;;5070674;28;19904;-66
2022/10/04 10:14:44;;;;;;;;;;;35.40;84.70;;;;;;5071617;28;19926;-65
2022/10/04 10:17:19;;;;;;;;;;;33.80;86.00;;;;;;5071751;28;20401;-65
2022/10/04 10:20:00;;;;;;;;;;;33.10;86.00;;;;;;5071745;28;20351;-65
2022/10/04 10:22:32;;;;;;;;;;;35.90;85.60;;;;;;5071745;28;20350;-65
2022/10/04 10:24:57;;;;;;;;;;;35.50;85.10;;;;;;5072221;28;20491;-66
2022/10/04 10:27:32;;;;;;;;;;;32.70;85.90;;;;;;5071271;28;20010;-65
2022/10/04 10:30:02;;;;;;;;;;;36.30;85.00;;;;;;5071607;28;20343;-65
2022/10/04 10:32:47;;;;;;;;;;;35.30;80.90;;;;;;5072562;28;19916;-65
2022/10/04 10:35:19;;;;;;;;;;;37.80;82.30;;;;;;5075330;28;20043;-66
2022/10/04 10:37:47;;;;;;;;;;;37.10;82.00;;;;;;5075288;28;19904;-65
2022/10/04 10:40:32;;;;;;;;;;;37.80;80.50;;;;;;5075133;28;19912;-65
2022/10/04 10:43:03;;;;;;;;;;;38.20;78.70;;;;;;5075146;28;19930;-66
2022/10/04 10:45:32;;;;;;;;;;;39.60;76.50;;;;;;5075296;28;19912;-65
2022/10/04 10:47:59;;;;;;;;;;;38.20;77.50;;;;;;5075076;28;20321;-65
2022/10/04 10:50:57;;;;;;;;;;;37.60;77.30;;;;;;5075174;28;19909;-65
2022/10/04 10:53:22;;;;;;;;;;;37.90;77.60;;;;;;5075330;28;19916;-66
2022/10/04 10:56:00;;;;;;;;;;;36.70;76.10;;;;;;5075214;28;20021;-65
2022/10/04 10:58:34;;;;;;;;;;;38.70;75.90;;;;;;5074517;28;19912;-65
2022/10/04 11:01:06;;;;;;;;;;;39.60;77.60;;;;;;5075339;28;19904;-65
2022/10/04 11:03:42;;;;;;;;;;;39.60;75.00;;;;;;5074851;28;20282;-65
2022/10/04 11:06:24;;;;;;;;;;;37.10;75.40;;;;;;5074810;28;20336;-65
2022/10/04 11:09:08;;;;;;;;;;;37.40;77.20;;;;;;5074513;28;20362;-65
2022/10/04 11:11:43;;;;;;;;;;;35.20;78.90;;;;;;5074179;28;20321;-65
2022/10/04 11:14:10;;;;;;;;;;;32.70;80.20;;;;;;5074277;28;19958;-66
2022/10/04 11:16:40;;;;;;;;;;;30.60;83.10;;;;;;5074772;28;19919;-66
2022/10/04 11:19:14;;;;;;;;;;;29.00;85.50;;;;;;5074525;28;19947;-65
2022/10/04 11:21:40;;;;;;;;;;;28.30;90.50;;;;;;5074489;28;20002;-65
2022/10/04 11:24:13;;;;;;;;;;;28.00;90.70;;;;;;5074449;28;19944;-65
2022/10/04 11:26:58;;;;;;;;;;;28.30;90.20;;;;;;5074251;28;19915;-65
2022/10/04 11:29:35;;;;;;;;;;;29.80;90.30;;;;;;5074410;28;20321;-65
2022/10/04 11:32:01;;;;;;;;;;;30.10;88.70;;;;;;5074308;28;19911;-66
2022/10/04 11:34:29;;;;;;;;;;;29.30;90.20;;;;;;5074284;28;19904;-65
2022/10/04 11:37:01;;;;;;;;;;;29.40;89.70;;;;;;5074328;28;19908;-64
2022/10/04 11:39:33;;;;;;;;;;;28.50;89.90;;;;;;5074067;28;19939;-65
2022/10/04 11:42:17;;;;;;;;;;;27.50;91.00;;;;;;5074624;28;19915;-64
2022/10/04 11:44:54;;;;;;;;;;;28.40;92.70;;;;;;5073545;28;19962;-65
2022/10/04 11:47:20;;;;;;;;;;;29.00;92.10;;;;;;5074337;28;19999;-65
2022/10/04 11:50:07;;;;;;;;;;;26.90;92.40;;;;;;5074145;28;19939;-65
2022/10/04 11:52:51;;;;;;;;;;;28.00;92.10;;;;;;5073702;28;20370;-65
2022/10/04 11:55:29;;;;;;;;;;;27.40;92.20;;;;;;5073493;28;19910;-65
2022/10/04 11:57:58;;;;;;;;;;;27.40;92.50;;;;;;5073821;28;20283;-65
2022/10/04 12:00:25;;;;;;;;;;;28.60;91.00;;;;;;5073998;28;19904;-64
2022/10/04 12:03:06;;;;;;;;;;;26.60;92.80;;;;;;5074190;28;20289;-65
2022/10/04 12:05:39;;;;;;;;;;;26.50;93.50;;;;;;5074000;28;20578;-65
2022/10/04 12:08:05;;;;;;;;;;;26.90;93.50;;;;;;5073520;28;20311;-65
2022/10/04 12:10:35;;;;;;;;;;;26.40;93.00;;;;;;5073095;28;19906;-65
2022/10/04 12:13:02;;;;;;;;;;;26.10;94.10;;;;;;5073482;28;20066;-65
2022/10/04 12:16:02;;;;;;;;;;;26.30;94.70;;;;;;5073877;28;20325;-65
2022/10/04 12:18:51;;;;;;;;;;;26.70;94.20;;;;;;5011612;28;19959;-65
2022/10/04 12:21:35;;;;;;;;;;;27.00;93.10;;;;;;5011414;28;19909;-65
2022/10/04 12:24:13;;;;;;;;;;;26.30;94.40;;;;;;5010981;28;20391;-65
2022/10/04 12:26:54;;;;;;;;;;;27.30;94.20;;;;;;5011428;28;20371;-65
2022/10/04 12:29:23;;;;;;;;;;;27.90;94.50;;;;;;5011297;28;20442;-65
2022/10/04 12:31:48;;;;;;;;;;;27.50;94.60;;;;;;5011251;28;20195;-65
2022/10/04 12:34:23;;;;;;;;;;;28.00;93.50;;;;;;5011570;28;19913;-66
2022/10/04 12:37:12;;;;;;;;;;;27.40;92.90;;;;;;5011140;28;19910;-65
2022/10/04 12:39:52;;;;;;;;;;;27.50;94.30;;;;;;5010730;28;19905;-66
2022/10/04 12:42:18;;;;;;;;;;;27.20;93.70;;;;;;5011328;28;19909;-61
2022/10/04 12:44:52;;;;;;;;;;;27.40;93.70;;;;;;5010906;28;19906;-66
2022/10/04 12:47:36;;;;;;;;;;;27.10;93.80;;;;;;5011112;28;20024;-65
2022/10/04 12:50:14;;;;;;;;;;;26.80;93.40;;;;;;5010904;28;19941;-66
2022/10/04 12:53:02;;;;;;;;;;;27.60;92.90;;;;;;5034947;28;19917;-65
2022/10/04 12:56:00;;;;;;;;;;;26.10;94.10;;;;;;5052417;28;19905;-65
2022/10/04 12:58:38;;;;;;;;;;;26.10;95.00;;;;;;4991001;28;19913;-66
2022/10/04 13:01:18;;;;;;;;;;;25.90;94.60;;;;;;4991338;28;20502;-65
2022/10/04 13:03:52;;;;;;;;;;;25.90;95.00;;;;;;4991531;28;19929;-65
2022/10/04 13:06:30;;;;;;;;;;;26.10;96.60;;;;;;4991110;28;19929;-66
2022/10/04 13:09:02;;;;;;;;;;;26.70;94.40;;;;;;4990816;28;19945;-66
2022/10/04 13:11:30;;;;;;;;;;;27.10;93.70;;;;;;5000478;28;19905;-66
2022/10/04 13:13:55;;;;;;;;;;;26.70;93.50;;;;;;5010699;28;19917;-65
2022/10/04 13:16:44;;;;;;;;;;;27.30;94.20;;;;;;5010949;28;19925;-65
2022/10/04 13:19:15;;;;;;;;;;;27.30;92.90;;;;;;5005494;28;19905;-65
2022/10/04 13:21:50;;;;;;;;;;;26.50;93.50;;;;;;5010733;28;20563;-64
2022/10/04 13:24:15;;;;;;;;;;;26.80;94.40;;;;;;5010633;28;19976;-65
2022/10/04 13:26:57;;;;;;;;;;;27.00;93.70;;;;;;5010632;28;20286;-65
2022/10/04 13:29:32;;;;;;;;;;;26.80;94.70;;;;;;5010483;28;19911;-65
2022/10/04 13:32:32;;;;;;;;;;;26.60;95.10;;;;;;5010573;28;19905;-65
2022/10/04 13:35:04;;;;;;;;;;;26.60;94.80;;;;;;5023979;28;19909;-68
2022/10/04 13:37:34;;;;;;;;;;;26.60;96.70;;;;;;5029840;28;19909;-67
2022/10/04 13:40:25;;;;;;;;;;;26.50;97.40;;;;;;5030252;28;20260;-65
2022/10/04 13:42:51;;;;;;;;;;;26.50;97.60;;;;;;4951962;28;20447;-66
2022/10/04 13:45:46;;;;;;;;;;;26.50;98.50;;;;;;4961403;28;19949;-66
2022/10/04 13:48:30;;;;;;;;;;;26.40;99.70;;;;;;4954858;28;19984;-67
2022/10/04 13:50:56;;;;;;;;;;;26.30;98.90;;;;;;4971009;28;19972;-66
2022/10/04 13:56:36;;;;;;;;;;;26.10;98.90;;;;;;4971752;28;19982;-66
2022/10/04 13:59:02;;;;;;;;;;;26.00;99.80;;;;;;4971209;28;19910;-66
2022/10/04 14:01:46;;;;;;;;;;;25.60;99.90;;;;;;4971174;28;19913;-66
2022/10/04 14:04:24;;;;;;;;;;;25.60;99.90;;;;;;4971136;28;19910;-66
2022/10/04 14:07:08;;;;;;;;;;;25.70;99.90;;;;;;4970756;28;20493;-66
2022/10/04 14:09:33;;;;;;;;;;;25.30;99.90;;;;;;4989459;28;19917;-66
2022/10/04 14:11:59;;;;;;;;;;;25.30;99.90;;;;;;4994123;28;19909;-66
2022/10/04 14:14:43;;;;;;;;;;;25.40;99.90;;;;;;4994827;28;20363;-66
2022/10/04 14:17:24;;;;;;;;;;;25.30;99.90;;;;;;4994249;28;19928;-67
2022/10/04 14:19:49;;;;;;;;;;;25.40;99.90;;;;;;5028170;28;20358;-67
2022/10/04 14:22:23;;;;;;;;;;;25.10;99.90;;;;;;5055752;28;19908;-67
2022/10/04 14:25:08;;;;;;;;;;;25.00;99.90;;;;;;5055613;28;20015;-66
2022/10/04 14:27:39;;;;;;;;;;;25.00;99.90;;;;;;5055488;28;20011;-66
2022/10/04 14:30:22;;;;;;;;;;;24.90;99.90;;;;;;5055520;28;19931;-66
2022/10/04 14:33:06;;;;;;;;;;;25.00;99.90;;;;;;5055687;28;19913;-66
2022/10/04 14:35:44;;;;;;;;;;;24.90;99.90;;;;;;5055158;28;19911;-66
2022/10/04 14:38:15;;;;;;;;;;;24.60;99.90;;;;;;5055392;28;19948;-67
2022/10/04 14:40:56;;;;;;;;;;;24.70;99.90;;;;;;5055355;28;19912;-67
2022/10/04 14:43:47;;;;;;;;;;;24.90;99.90;;;;;;5055674;28;19905;-66
2022/10/04 14:46:32;;;;;;;;;;;24.60;99.90;;;;;;5072543;28;20343;-66
2022/10/04 14:48:57;;;;;;;;;;;24.40;99.90;;;;;;5074889;28;19911;-66
2022/10/04 14:51:31;;;;;;;;;;;24.50;99.90;;;;;;5075105;28;20286;-67
2022/10/04 14:54:08;;;;;;;;;;;24.30;99.90;;;;;;5075066;28;20287;-66
2022/10/04 14:56:43;;;;;;;;;;;24.10;99.90;;;;;;5075166;28;20256;-66
2022/10/04 14:59:08;;;;;;;;;;;24.20;99.90;;;;;;5075004;28;20322;-66
2022/10/04 15:01:37;;;;;;;;;;;24.20;99.90;;;;;;5075240;28;19908;-66
2022/10/04 15:04:13;;;;;;;;;;;24.00;99.90;;;;;;5074573;28;19989;-66